sensor_id;sensor_type;location;lat;lon;timestamp;P1;durP1;ratioP1;P2;durP2;ratioP2
32790;SDS011;19143;59.322;14.502;2023-07-28T00:01:24;1.83;;;1.70;;
32790;SDS011;19143;59.322;14.502;2023-07-28T00:03:51;1.80;;;1.73;;
32790;SDS011;19143;59.322;14.502;2023-07-28T00:06:17;3.03;;;1.57;;
32790;SDS011;19143;59.322;14.502;2023-07-28T00:08:44;4.13;;;1.80;;
32790;SDS011;19143;59.322;14.502;2023-07-28T00:11:11;1.73;;;1.47;;
32790;SDS011;19143;59.322;14.502;2023-07-28T00:13:39;3.80;;;1.73;;
32790;SDS011;19143;59.322;14.502;2023-07-28T00:16:05;1.63;;;1.53;;
32790;SDS011;19143;59.322;14.502;2023-07-28T00:18:32;2.40;;;1.70;;
32790;SDS011;19143;59.322;14.502;2023-07-28T00:20:59;2.73;;;1.63;;
32790;SDS011;19143;59.322;14.502;2023-07-28T00:23:25;1.60;;;1.50;;
32790;SDS011;19143;59.322;14.502;2023-07-28T00:25:52;1.63;;;1.30;;
32790;SDS011;19143;59.322;14.502;2023-07-28T00:28:19;2.63;;;1.57;;
32790;SDS011;19143;59.322;14.502;2023-07-28T00:30:49;2.90;;;1.70;;
32790;SDS011;19143;59.322;14.502;2023-07-28T00:33:16;5.00;;;1.57;;
32790;SDS011;19143;59.322;14.502;2023-07-28T00:35:43;1.57;;;1.40;;
32790;SDS011;19143;59.322;14.502;2023-07-28T00:38:10;1.70;;;1.70;;
32790;SDS011;19143;59.322;14.502;2023-07-28T00:40:36;1.50;;;1.50;;
32790;SDS011;19143;59.322;14.502;2023-07-28T00:43:03;1.90;;;1.80;;
32790;SDS011;19143;59.322;14.502;2023-07-28T00:45:31;5.33;;;2.03;;
32790;SDS011;19143;59.322;14.502;2023-07-28T00:48:00;3.40;;;1.70;;
32790;SDS011;19143;59.322;14.502;2023-07-28T00:50:27;2.03;;;1.93;;
32790;SDS011;19143;59.322;14.502;2023-07-28T00:52:54;1.60;;;1.60;;
32790;SDS011;19143;59.322;14.502;2023-07-28T00:55:21;2.23;;;2.13;;
32790;SDS011;19143;59.322;14.502;2023-07-28T00:57:49;3.30;;;1.70;;
32790;SDS011;19143;59.322;14.502;2023-07-28T01:00:16;1.77;;;1.77;;
32790;SDS011;19143;59.322;14.502;2023-07-28T01:02:42;2.10;;;1.90;;
32790;SDS011;19143;59.322;14.502;2023-07-28T01:05:10;3.23;;;1.90;;
32790;SDS011;19143;59.322;14.502;2023-07-28T01:07:39;2.30;;;1.80;;
32790;SDS011;19143;59.322;14.502;2023-07-28T01:10:08;1.83;;;1.73;;
32790;SDS011;19143;59.322;14.502;2023-07-28T01:12:36;1.80;;;1.70;;
32790;SDS011;19143;59.322;14.502;2023-07-28T01:15:03;2.63;;;2.00;;
32790;SDS011;19143;59.322;14.502;2023-07-28T01:17:30;4.57;;;2.20;;
32790;SDS011;19143;59.322;14.502;2023-07-28T01:19:56;2.17;;;2.00;;
32790;SDS011;19143;59.322;14.502;2023-07-28T01:22:35;1.83;;;1.77;;
32790;SDS011;19143;59.322;14.502;2023-07-28T01:25:05;4.93;;;2.13;;
32790;SDS011;19143;59.322;14.502;2023-07-28T01:27:34;3.37;;;1.73;;
32790;SDS011;19143;59.322;14.502;2023-07-28T01:30:02;2.30;;;2.10;;
32790;SDS011;19143;59.322;14.502;2023-07-28T01:32:29;1.90;;;1.90;;
32790;SDS011;19143;59.322;14.502;2023-07-28T01:34:55;6.23;;;1.90;;
32790;SDS011;19143;59.322;14.502;2023-07-28T01:37:22;1.77;;;1.67;;
32790;SDS011;19143;59.322;14.502;2023-07-28T01:39:49;2.30;;;2.20;;
32790;SDS011;19143;59.322;14.502;2023-07-28T01:42:15;2.10;;;2.00;;
32790;SDS011;19143;59.322;14.502;2023-07-28T01:44:43;2.00;;;1.90;;
32790;SDS011;19143;59.322;14.502;2023-07-28T01:47:10;4.50;;;2.03;;
32790;SDS011;19143;59.322;14.502;2023-07-28T01:49:36;2.87;;;1.77;;
32790;SDS011;19143;59.322;14.502;2023-07-28T01:52:03;2.50;;;1.77;;
32790;SDS011;19143;59.322;14.502;2023-07-28T01:54:30;4.30;;;1.90;;
32790;SDS011;19143;59.322;14.502;2023-07-28T01:56:56;8.27;;;2.17;;
32790;SDS011;19143;59.322;14.502;2023-07-28T01:59:23;2.03;;;1.93;;
32790;SDS011;19143;59.322;14.502;2023-07-28T02:01:51;2.83;;;2.00;;
32790;SDS011;19143;59.322;14.502;2023-07-28T02:04:18;2.27;;;2.17;;
32790;SDS011;19143;59.322;14.502;2023-07-28T02:06:46;4.73;;;2.10;;
32790;SDS011;19143;59.322;14.502;2023-07-28T02:09:12;1.80;;;1.80;;
32790;SDS011;19143;59.322;14.502;2023-07-28T02:11:39;2.00;;;1.90;;
32790;SDS011;19143;59.322;14.502;2023-07-28T02:14:05;2.10;;;1.90;;
32790;SDS011;19143;59.322;14.502;2023-07-28T02:16:32;5.57;;;2.07;;
32790;SDS011;19143;59.322;14.502;2023-07-28T02:19:00;6.17;;;2.10;;
32790;SDS011;19143;59.322;14.502;2023-07-28T02:21:27;1.87;;;1.87;;
32790;SDS011;19143;59.322;14.502;2023-07-28T02:23:54;2.20;;;2.03;;
32790;SDS011;19143;59.322;14.502;2023-07-28T02:26:20;4.60;;;2.10;;
32790;SDS011;19143;59.322;14.502;2023-07-28T02:28:47;2.60;;;2.20;;
32790;SDS011;19143;59.322;14.502;2023-07-28T02:31:13;3.37;;;1.90;;
32790;SDS011;19143;59.322;14.502;2023-07-28T02:33:40;2.33;;;2.23;;
32790;SDS011;19143;59.322;14.502;2023-07-28T02:36:08;2.27;;;2.10;;
32790;SDS011;19143;59.322;14.502;2023-07-28T02:38:35;2.00;;;1.90;;
32790;SDS011;19143;59.322;14.502;2023-07-28T02:41:02;2.20;;;2.00;;
32790;SDS011;19143;59.322;14.502;2023-07-28T02:43:29;2.03;;;1.83;;
32790;SDS011;19143;59.322;14.502;2023-07-28T02:45:56;1.67;;;1.67;;
32790;SDS011;19143;59.322;14.502;2023-07-28T02:48:23;1.87;;;1.83;;
32790;SDS011;19143;59.322;14.502;2023-07-28T02:50:50;2.03;;;1.90;;
32790;SDS011;19143;59.322;14.502;2023-07-28T02:53:18;1.60;;;1.60;;
32790;SDS011;19143;59.322;14.502;2023-07-28T02:55:45;3.87;;;1.70;;
32790;SDS011;19143;59.322;14.502;2023-07-28T02:58:12;8.40;;;2.07;;
32790;SDS011;19143;59.322;14.502;2023-07-28T03:00:39;24.93;;;3.57;;
32790;SDS011;19143;59.322;14.502;2023-07-28T03:03:06;13.23;;;2.57;;
32790;SDS011;19143;59.322;14.502;2023-07-28T03:05:35;11.37;;;2.73;;
32790;SDS011;19143;59.322;14.502;2023-07-28T03:08:02;29.80;;;2.37;;
32790;SDS011;19143;59.322;14.502;2023-07-28T03:10:37;19.20;;;2.63;;
32790;SDS011;19143;59.322;14.502;2023-07-28T03:13:03;77.30;;;3.93;;
32790;SDS011;19143;59.322;14.502;2023-07-28T03:15:30;21.43;;;3.10;;
32790;SDS011;19143;59.322;14.502;2023-07-28T03:17:56;37.90;;;3.97;;
32790;SDS011;19143;59.322;14.502;2023-07-28T03:20:30;69.87;;;4.90;;
32790;SDS011;19143;59.322;14.502;2023-07-28T03:22:56;35.27;;;3.13;;
32790;SDS011;19143;59.322;14.502;2023-07-28T03:25:23;79.30;;;4.13;;
32790;SDS011;19143;59.322;14.502;2023-07-28T03:27:51;24.10;;;2.23;;
32790;SDS011;19143;59.322;14.502;2023-07-28T03:30:19;29.30;;;3.20;;
32790;SDS011;19143;59.322;14.502;2023-07-28T03:32:45;36.57;;;2.87;;
32790;SDS011;19143;59.322;14.502;2023-07-28T03:35:12;47.00;;;5.07;;
32790;SDS011;19143;59.322;14.502;2023-07-28T03:37:39;45.83;;;3.40;;
32790;SDS011;19143;59.322;14.502;2023-07-28T03:40:06;71.17;;;6.93;;
32790;SDS011;19143;59.322;14.502;2023-07-28T03:42:33;59.63;;;4.63;;
32790;SDS011;19143;59.322;14.502;2023-07-28T03:45:01;70.10;;;4.80;;
32790;SDS011;19143;59.322;14.502;2023-07-28T03:47:28;30.97;;;2.90;;
32790;SDS011;19143;59.322;14.502;2023-07-28T03:49:54;40.87;;;3.27;;
32790;SDS011;19143;59.322;14.502;2023-07-28T03:52:21;26.00;;;2.30;;
32790;SDS011;19143;59.322;14.502;2023-07-28T03:54:48;21.27;;;2.53;;
32790;SDS011;19143;59.322;14.502;2023-07-28T03:57:14;20.23;;;2.70;;
32790;SDS011;19143;59.322;14.502;2023-07-28T03:59:41;14.10;;;1.77;;
32790;SDS011;19143;59.322;14.502;2023-07-28T04:02:09;19.97;;;2.40;;
32790;SDS011;19143;59.322;14.502;2023-07-28T04:04:36;8.93;;;2.10;;
32790;SDS011;19143;59.322;14.502;2023-07-28T04:07:02;11.73;;;2.00;;
32790;SDS011;19143;59.322;14.502;2023-07-28T04:09:29;26.67;;;2.40;;
32790;SDS011;19143;59.322;14.502;2023-07-28T04:11:55;6.33;;;1.60;;
32790;SDS011;19143;59.322;14.502;2023-07-28T04:14:22;8.57;;;1.80;;
32790;SDS011;19143;59.322;14.502;2023-07-28T04:16:49;1.53;;;1.40;;
32790;SDS011;19143;59.322;14.502;2023-07-28T04:19:17;3.37;;;1.50;;
32790;SDS011;19143;59.322;14.502;2023-07-28T04:21:43;7.93;;;2.00;;
32790;SDS011;19143;59.322;14.502;2023-07-28T04:24:10;3.00;;;2.10;;
32790;SDS011;19143;59.322;14.502;2023-07-28T04:26:37;3.63;;;1.70;;
32790;SDS011;19143;59.322;14.502;2023-07-28T04:29:03;2.80;;;1.63;;
32790;SDS011;19143;59.322;14.502;2023-07-28T04:31:30;7.97;;;1.80;;
32790;SDS011;19143;59.322;14.502;2023-07-28T04:33:56;5.80;;;1.83;;
32790;SDS011;19143;59.322;14.502;2023-07-28T04:36:24;5.70;;;1.90;;
32790;SDS011;19143;59.322;14.502;2023-07-28T04:38:51;4.40;;;1.80;;
32790;SDS011;19143;59.322;14.502;2023-07-28T04:41:17;3.93;;;1.90;;
32790;SDS011;19143;59.322;14.502;2023-07-28T04:43:44;4.17;;;1.87;;
32790;SDS011;19143;59.322;14.502;2023-07-28T04:46:11;1.93;;;1.83;;
32790;SDS011;19143;59.322;14.502;2023-07-28T04:48:37;1.87;;;1.87;;
32790;SDS011;19143;59.322;14.502;2023-07-28T04:51:04;2.30;;;1.50;;
32790;SDS011;19143;59.322;14.502;2023-07-28T04:53:32;5.47;;;1.50;;
32790;SDS011;19143;59.322;14.502;2023-07-28T04:55:58;1.40;;;1.40;;
32790;SDS011;19143;59.322;14.502;2023-07-28T04:58:25;2.03;;;1.30;;
32790;SDS011;19143;59.322;14.502;2023-07-28T05:00:52;1.50;;;1.50;;
32790;SDS011;19143;59.322;14.502;2023-07-28T05:03:19;1.00;;;1.00;;
32790;SDS011;19143;59.322;14.502;2023-07-28T05:05:45;1.40;;;1.30;;
32790;SDS011;19143;59.322;14.502;2023-07-28T05:08:12;1.47;;;1.47;;
32790;SDS011;19143;59.322;14.502;2023-07-28T05:10:40;1.20;;;1.20;;
32790;SDS011;19143;59.322;14.502;2023-07-28T05:13:07;1.80;;;1.60;;
32790;SDS011;19143;59.322;14.502;2023-07-28T05:15:33;1.47;;;1.47;;
32790;SDS011;19143;59.322;14.502;2023-07-28T05:18:00;1.53;;;1.30;;
32790;SDS011;19143;59.322;14.502;2023-07-28T05:20:26;1.17;;;1.17;;
32790;SDS011;19143;59.322;14.502;2023-07-28T05:22:53;1.30;;;1.30;;
32790;SDS011;19143;59.322;14.502;2023-07-28T05:25:20;1.20;;;1.20;;
32790;SDS011;19143;59.322;14.502;2023-07-28T05:27:48;1.30;;;1.30;;
32790;SDS011;19143;59.322;14.502;2023-07-28T05:30:18;1.80;;;1.27;;
32790;SDS011;19143;59.322;14.502;2023-07-28T05:32:45;4.03;;;3.67;;
32790;SDS011;19143;59.322;14.502;2023-07-28T05:35:11;1.90;;;1.80;;
32790;SDS011;19143;59.322;14.502;2023-07-28T05:37:38;1.70;;;1.60;;
32790;SDS011;19143;59.322;14.502;2023-07-28T05:40:07;1.13;;;1.13;;
32790;SDS011;19143;59.322;14.502;2023-07-28T05:42:34;4.33;;;1.20;;
32790;SDS011;19143;59.322;14.502;2023-07-28T05:45:02;1.10;;;1.10;;
32790;SDS011;19143;59.322;14.502;2023-07-28T05:47:29;3.23;;;1.03;;
32790;SDS011;19143;59.322;14.502;2023-07-28T05:49:55;0.80;;;0.80;;
32790;SDS011;19143;59.322;14.502;2023-07-28T05:52:22;0.80;;;0.80;;
32790;SDS011;19143;59.322;14.502;2023-07-28T05:54:49;1.40;;;1.00;;
32790;SDS011;19143;59.322;14.502;2023-07-28T05:57:15;1.20;;;1.10;;
32790;SDS011;19143;59.322;14.502;2023-07-28T05:59:42;1.23;;;1.10;;
32790;SDS011;19143;59.322;14.502;2023-07-28T06:02:10;1.00;;;1.00;;
32790;SDS011;19143;59.322;14.502;2023-07-28T06:04:37;0.90;;;0.90;;
32790;SDS011;19143;59.322;14.502;2023-07-28T06:07:04;1.73;;;1.67;;
32790;SDS011;19143;59.322;14.502;2023-07-28T06:09:31;0.90;;;0.90;;
32790;SDS011;19143;59.322;14.502;2023-07-28T06:11:58;3.00;;;1.10;;
32790;SDS011;19143;59.322;14.502;2023-07-28T06:14:24;1.07;;;0.90;;
32790;SDS011;19143;59.322;14.502;2023-07-28T06:16:51;3.50;;;1.20;;
32790;SDS011;19143;59.322;14.502;2023-07-28T06:19:19;1.03;;;1.03;;
32790;SDS011;19143;59.322;14.502;2023-07-28T06:21:49;1.57;;;1.50;;
32790;SDS011;19143;59.322;14.502;2023-07-28T06:24:16;1.33;;;1.23;;
32790;SDS011;19143;59.322;14.502;2023-07-28T06:26:43;1.27;;;1.00;;
32790;SDS011;19143;59.322;14.502;2023-07-28T06:29:09;0.90;;;0.90;;
32790;SDS011;19143;59.322;14.502;2023-07-28T06:31:37;0.90;;;0.90;;
32790;SDS011;19143;59.322;14.502;2023-07-28T06:34:03;0.90;;;0.90;;
32790;SDS011;19143;59.322;14.502;2023-07-28T06:36:31;1.30;;;1.20;;
32790;SDS011;19143;59.322;14.502;2023-07-28T06:38:58;4.00;;;1.13;;
32790;SDS011;19143;59.322;14.502;2023-07-28T06:41:25;0.80;;;0.80;;
32790;SDS011;19143;59.322;14.502;2023-07-28T06:43:51;0.80;;;0.80;;
32790;SDS011;19143;59.322;14.502;2023-07-28T06:46:18;0.87;;;0.87;;
32790;SDS011;19143;59.322;14.502;2023-07-28T06:48:44;1.60;;;1.23;;
32790;SDS011;19143;59.322;14.502;2023-07-28T06:51:11;0.90;;;0.90;;
32790;SDS011;19143;59.322;14.502;2023-07-28T06:53:39;0.77;;;0.77;;
32790;SDS011;19143;59.322;14.502;2023-07-28T06:56:05;0.83;;;0.83;;
32790;SDS011;19143;59.322;14.502;2023-07-28T06:58:32;3.20;;;1.20;;
32790;SDS011;19143;59.322;14.502;2023-07-28T07:00:59;1.70;;;0.90;;
32790;SDS011;19143;59.322;14.502;2023-07-28T07:03:25;1.00;;;1.00;;
32790;SDS011;19143;59.322;14.502;2023-07-28T07:05:52;2.10;;;0.97;;
32790;SDS011;19143;59.322;14.502;2023-07-28T07:08:18;1.40;;;1.30;;
32790;SDS011;19143;59.322;14.502;2023-07-28T07:10:48;1.37;;;1.10;;
32790;SDS011;19143;59.322;14.502;2023-07-28T07:13:15;3.50;;;1.53;;
32790;SDS011;19143;59.322;14.502;2023-07-28T07:15:42;4.03;;;1.30;;
32790;SDS011;19143;59.322;14.502;2023-07-28T07:18:09;1.50;;;1.17;;
32790;SDS011;19143;59.322;14.502;2023-07-28T07:20:35;4.17;;;1.07;;
32790;SDS011;19143;59.322;14.502;2023-07-28T07:23:02;1.90;;;1.27;;
32790;SDS011;19143;59.322;14.502;2023-07-28T07:25:28;1.33;;;1.23;;
32790;SDS011;19143;59.322;14.502;2023-07-28T07:27:56;4.17;;;1.50;;
32790;SDS011;19143;59.322;14.502;2023-07-28T07:30:23;1.90;;;1.10;;
32790;SDS011;19143;59.322;14.502;2023-07-28T07:32:50;1.00;;;1.00;;
32790;SDS011;19143;59.322;14.502;2023-07-28T07:35:16;1.57;;;1.17;;
32790;SDS011;19143;59.322;14.502;2023-07-28T07:37:43;1.10;;;1.00;;
32790;SDS011;19143;59.322;14.502;2023-07-28T07:40:10;1.60;;;1.50;;
32790;SDS011;19143;59.322;14.502;2023-07-28T07:42:42;1.23;;;1.20;;
32790;SDS011;19143;59.322;14.502;2023-07-28T07:45:11;1.30;;;1.30;;
32790;SDS011;19143;59.322;14.502;2023-07-28T07:47:38;2.07;;;1.20;;
32790;SDS011;19143;59.322;14.502;2023-07-28T07:50:05;2.60;;;1.17;;
32790;SDS011;19143;59.322;14.502;2023-07-28T07:52:32;1.27;;;1.20;;
32790;SDS011;19143;59.322;14.502;2023-07-28T07:55:02;1.07;;;1.07;;
32790;SDS011;19143;59.322;14.502;2023-07-28T07:57:28;1.80;;;1.00;;
32790;SDS011;19143;59.322;14.502;2023-07-28T07:59:57;1.40;;;1.30;;
32790;SDS011;19143;59.322;14.502;2023-07-28T08:02:25;1.10;;;1.10;;
32790;SDS011;19143;59.322;14.502;2023-07-28T08:04:52;1.40;;;1.30;;
32790;SDS011;19143;59.322;14.502;2023-07-28T08:07:19;1.60;;;1.20;;
32790;SDS011;19143;59.322;14.502;2023-07-28T08:09:46;1.10;;;1.10;;
32790;SDS011;19143;59.322;14.502;2023-07-28T08:12:13;1.10;;;1.10;;
32790;SDS011;19143;59.322;14.502;2023-07-28T08:14:40;1.10;;;1.10;;
32790;SDS011;19143;59.322;14.502;2023-07-28T08:17:07;1.33;;;1.20;;
32790;SDS011;19143;59.322;14.502;2023-07-28T08:19:35;4.27;;;1.33;;
32790;SDS011;19143;59.322;14.502;2023-07-28T08:22:01;1.53;;;1.20;;
32790;SDS011;19143;59.322;14.502;2023-07-28T08:24:29;3.03;;;1.20;;
32790;SDS011;19143;59.322;14.502;2023-07-28T08:26:56;1.63;;;1.20;;
32790;SDS011;19143;59.322;14.502;2023-07-28T08:29:22;1.50;;;1.10;;
32790;SDS011;19143;59.322;14.502;2023-07-28T08:31:49;1.30;;;1.20;;
32790;SDS011;19143;59.322;14.502;2023-07-28T08:34:15;1.10;;;1.10;;
32790;SDS011;19143;59.322;14.502;2023-07-28T08:36:44;1.23;;;1.20;;
32790;SDS011;19143;59.322;14.502;2023-07-28T08:39:11;1.80;;;1.10;;
32790;SDS011;19143;59.322;14.502;2023-07-28T08:41:38;1.17;;;1.07;;
32790;SDS011;19143;59.322;14.502;2023-07-28T08:44:11;1.20;;;1.20;;
32790;SDS011;19143;59.322;14.502;2023-07-28T08:46:38;1.00;;;1.00;;
32790;SDS011;19143;59.322;14.502;2023-07-28T08:49:04;1.00;;;1.00;;
32790;SDS011;19143;59.322;14.502;2023-07-28T08:51:31;1.20;;;1.20;;
32790;SDS011;19143;59.322;14.502;2023-07-28T08:53:59;1.27;;;1.27;;
32790;SDS011;19143;59.322;14.502;2023-07-28T08:56:25;1.50;;;1.40;;
32790;SDS011;19143;59.322;14.502;2023-07-28T08:58:57;1.30;;;1.30;;
32790;SDS011;19143;59.322;14.502;2023-07-28T09:01:23;3.20;;;1.30;;
32790;SDS011;19143;59.322;14.502;2023-07-28T09:03:50;1.20;;;1.10;;
32790;SDS011;19143;59.322;14.502;2023-07-28T09:06:16;1.20;;;1.20;;
32790;SDS011;19143;59.322;14.502;2023-07-28T09:08:46;1.60;;;1.50;;
32790;SDS011;19143;59.322;14.502;2023-07-28T09:11:14;1.40;;;1.30;;
32790;SDS011;19143;59.322;14.502;2023-07-28T09:13:41;1.23;;;1.23;;
32790;SDS011;19143;59.322;14.502;2023-07-28T09:16:16;2.83;;;1.40;;
32790;SDS011;19143;59.322;14.502;2023-07-28T09:18:42;2.90;;;1.50;;
32790;SDS011;19143;59.322;14.502;2023-07-28T09:21:14;7.90;;;2.23;;
32790;SDS011;19143;59.322;14.502;2023-07-28T09:23:42;6.90;;;1.80;;
32790;SDS011;19143;59.322;14.502;2023-07-28T09:26:08;1.40;;;1.40;;
32790;SDS011;19143;59.322;14.502;2023-07-28T09:28:37;0.97;;;0.97;;
32790;SDS011;19143;59.322;14.502;2023-07-28T09:31:04;2.57;;;1.17;;
32790;SDS011;19143;59.322;14.502;2023-07-28T09:33:32;1.00;;;1.00;;
32790;SDS011;19143;59.322;14.502;2023-07-28T09:36:06;1.37;;;1.10;;
32790;SDS011;19143;59.322;14.502;2023-07-28T09:38:33;0.93;;;0.93;;
32790;SDS011;19143;59.322;14.502;2023-07-28T09:41:02;0.90;;;0.90;;
32790;SDS011;19143;59.322;14.502;2023-07-28T09:43:31;0.90;;;0.90;;
32790;SDS011;19143;59.322;14.502;2023-07-28T09:45:59;1.23;;;0.97;;
32790;SDS011;19143;59.322;14.502;2023-07-28T09:48:25;1.23;;;1.23;;
32790;SDS011;19143;59.322;14.502;2023-07-28T09:50:56;1.13;;;1.10;;
32790;SDS011;19143;59.322;14.502;2023-07-28T09:53:24;0.80;;;0.80;;
32790;SDS011;19143;59.322;14.502;2023-07-28T09:55:54;2.47;;;0.87;;
32790;SDS011;19143;59.322;14.502;2023-07-28T09:58:24;2.93;;;0.90;;
32790;SDS011;19143;59.322;14.502;2023-07-28T10:00:51;0.83;;;0.83;;
32790;SDS011;19143;59.322;14.502;2023-07-28T10:03:20;1.37;;;0.87;;
32790;SDS011;19143;59.322;14.502;2023-07-28T10:05:47;3.40;;;0.90;;
32790;SDS011;19143;59.322;14.502;2023-07-28T10:08:13;0.90;;;0.90;;
32790;SDS011;19143;59.322;14.502;2023-07-28T10:10:40;1.10;;;1.00;;
32790;SDS011;19143;59.322;14.502;2023-07-28T10:13:18;1.00;;;0.90;;
32790;SDS011;19143;59.322;14.502;2023-07-28T10:15:45;0.83;;;0.80;;
32790;SDS011;19143;59.322;14.502;2023-07-28T10:18:12;0.60;;;0.60;;
32790;SDS011;19143;59.322;14.502;2023-07-28T10:20:42;0.70;;;0.70;;
32790;SDS011;19143;59.322;14.502;2023-07-28T10:23:12;0.70;;;0.70;;
32790;SDS011;19143;59.322;14.502;2023-07-28T10:25:43;0.70;;;0.70;;
32790;SDS011;19143;59.322;14.502;2023-07-28T10:28:24;0.70;;;0.70;;
32790;SDS011;19143;59.322;14.502;2023-07-28T10:30:52;0.60;;;0.60;;
32790;SDS011;19143;59.322;14.502;2023-07-28T10:33:29;1.47;;;0.70;;
32790;SDS011;19143;59.322;14.502;2023-07-28T10:35:57;0.70;;;0.70;;
32790;SDS011;19143;59.322;14.502;2023-07-28T10:38:33;0.70;;;0.70;;
32790;SDS011;19143;59.322;14.502;2023-07-28T10:41:08;0.60;;;0.57;;
32790;SDS011;19143;59.322;14.502;2023-07-28T10:43:35;3.73;;;0.90;;
32790;SDS011;19143;59.322;14.502;2023-07-28T10:46:02;2.13;;;0.80;;
32790;SDS011;19143;59.322;14.502;2023-07-28T10:48:31;1.03;;;0.83;;
32790;SDS011;19143;59.322;14.502;2023-07-28T10:51:00;0.63;;;0.63;;
32790;SDS011;19143;59.322;14.502;2023-07-28T10:53:26;0.67;;;0.67;;
32790;SDS011;19143;59.322;14.502;2023-07-28T10:55:53;0.80;;;0.80;;
32790;SDS011;19143;59.322;14.502;2023-07-28T10:58:20;0.70;;;0.70;;
32790;SDS011;19143;59.322;14.502;2023-07-28T11:00:51;0.70;;;0.70;;
32790;SDS011;19143;59.322;14.502;2023-07-28T11:03:18;0.63;;;0.63;;
32790;SDS011;19143;59.322;14.502;2023-07-28T11:05:45;0.97;;;0.80;;
32790;SDS011;19143;59.322;14.502;2023-07-28T11:08:15;1.10;;;0.80;;
32790;SDS011;19143;59.322;14.502;2023-07-28T11:10:45;0.77;;;0.70;;
32790;SDS011;19143;59.322;14.502;2023-07-28T11:13:12;0.70;;;0.70;;
32790;SDS011;19143;59.322;14.502;2023-07-28T11:15:39;1.17;;;0.80;;
32790;SDS011;19143;59.322;14.502;2023-07-28T11:18:07;0.80;;;0.80;;
32790;SDS011;19143;59.322;14.502;2023-07-28T11:20:34;1.37;;;0.83;;
32790;SDS011;19143;59.322;14.502;2023-07-28T11:23:02;0.80;;;0.80;;
32790;SDS011;19143;59.322;14.502;2023-07-28T11:28:13;0.90;;;0.90;;
32790;SDS011;19143;59.322;14.502;2023-07-28T11:30:40;1.00;;;1.00;;
32790;SDS011;19143;59.322;14.502;2023-07-28T11:33:09;1.93;;;0.90;;
32790;SDS011;19143;59.322;14.502;2023-07-28T11:35:37;0.77;;;0.77;;
32790;SDS011;19143;59.322;14.502;2023-07-28T11:38:04;1.20;;;1.20;;
32790;SDS011;19143;59.322;14.502;2023-07-28T11:40:31;1.73;;;1.13;;
32790;SDS011;19143;59.322;14.502;2023-07-28T11:42:57;0.80;;;0.80;;
32790;SDS011;19143;59.322;14.502;2023-07-28T11:45:26;2.63;;;0.90;;
32790;SDS011;19143;59.322;14.502;2023-07-28T11:47:54;2.83;;;1.00;;
32790;SDS011;19143;59.322;14.502;2023-07-28T11:50:24;1.30;;;1.00;;
32790;SDS011;19143;59.322;14.502;2023-07-28T11:52:51;1.37;;;1.27;;
32790;SDS011;19143;59.322;14.502;2023-07-28T11:55:18;2.40;;;0.77;;
32790;SDS011;19143;59.322;14.502;2023-07-28T11:57:44;3.97;;;1.03;;
32790;SDS011;19143;59.322;14.502;2023-07-28T12:00:11;1.00;;;1.00;;
32790;SDS011;19143;59.322;14.502;2023-07-28T12:02:43;1.13;;;1.00;;
32790;SDS011;19143;59.322;14.502;2023-07-28T12:05:13;1.00;;;1.00;;
32790;SDS011;19143;59.322;14.502;2023-07-28T12:07:40;2.13;;;1.00;;
32790;SDS011;19143;59.322;14.502;2023-07-28T12:10:07;0.80;;;0.80;;
32790;SDS011;19143;59.322;14.502;2023-07-28T12:12:41;1.20;;;1.20;;
32790;SDS011;19143;59.322;14.502;2023-07-28T12:15:18;1.00;;;1.00;;
32790;SDS011;19143;59.322;14.502;2023-07-28T12:20:32;4.33;;;1.20;;
32790;SDS011;19143;59.322;14.502;2023-07-28T12:22:59;2.93;;;1.50;;
32790;SDS011;19143;59.322;14.502;2023-07-28T12:25:25;2.67;;;1.60;;
32790;SDS011;19143;59.322;14.502;2023-07-28T12:27:52;1.40;;;1.30;;
32790;SDS011;19143;59.322;14.502;2023-07-28T12:30:19;1.20;;;1.20;;
32790;SDS011;19143;59.322;14.502;2023-07-28T12:32:50;1.30;;;1.20;;
32790;SDS011;19143;59.322;14.502;2023-07-28T12:35:16;2.33;;;1.17;;
32790;SDS011;19143;59.322;14.502;2023-07-28T12:37:59;1.37;;;1.13;;
32790;SDS011;19143;59.322;14.502;2023-07-28T12:40:26;2.20;;;1.20;;
32790;SDS011;19143;59.322;14.502;2023-07-28T12:42:53;1.60;;;1.40;;
32790;SDS011;19143;59.322;14.502;2023-07-28T12:45:20;4.10;;;1.50;;
32790;SDS011;19143;59.322;14.502;2023-07-28T12:47:47;1.57;;;1.50;;
32790;SDS011;19143;59.322;14.502;2023-07-28T12:50:14;1.43;;;1.33;;
32790;SDS011;19143;59.322;14.502;2023-07-28T12:52:40;1.50;;;1.50;;
32790;SDS011;19143;59.322;14.502;2023-07-28T12:55:09;1.60;;;1.50;;
32790;SDS011;19143;59.322;14.502;2023-07-28T12:57:36;1.40;;;1.40;;
32790;SDS011;19143;59.322;14.502;2023-07-28T13:00:02;1.60;;;1.50;;
32790;SDS011;19143;59.322;14.502;2023-07-28T13:02:37;1.90;;;1.57;;
32790;SDS011;19143;59.322;14.502;2023-07-28T13:05:05;2.93;;;1.47;;
32790;SDS011;19143;59.322;14.502;2023-07-28T13:07:35;1.60;;;1.40;;
32790;SDS011;19143;59.322;14.502;2023-07-28T13:10:02;1.50;;;1.40;;
32790;SDS011;19143;59.322;14.502;2023-07-28T13:12:31;1.60;;;1.60;;
32790;SDS011;19143;59.322;14.502;2023-07-28T13:14:57;3.07;;;1.70;;
32790;SDS011;19143;59.322;14.502;2023-07-28T13:17:24;1.50;;;1.50;;
32790;SDS011;19143;59.322;14.502;2023-07-28T13:19:51;1.53;;;1.50;;
32790;SDS011;19143;59.322;14.502;2023-07-28T13:22:18;1.67;;;1.57;;
32790;SDS011;19143;59.322;14.502;2023-07-28T13:24:45;1.40;;;1.40;;
32790;SDS011;19143;59.322;14.502;2023-07-28T13:27:11;1.50;;;1.50;;
32790;SDS011;19143;59.322;14.502;2023-07-28T13:29:39;1.37;;;1.33;;
32790;SDS011;19143;59.322;14.502;2023-07-28T13:32:14;1.47;;;1.47;;
32790;SDS011;19143;59.322;14.502;2023-07-28T13:34:41;1.20;;;1.20;;
32790;SDS011;19143;59.322;14.502;2023-07-28T13:37:08;1.53;;;1.50;;
32790;SDS011;19143;59.322;14.502;2023-07-28T13:39:35;1.83;;;1.30;;
32790;SDS011;19143;59.322;14.502;2023-07-28T13:42:01;1.70;;;1.40;;
32790;SDS011;19143;59.322;14.502;2023-07-28T13:44:28;1.30;;;1.30;;
32790;SDS011;19143;59.322;14.502;2023-07-28T13:46:58;1.60;;;1.60;;
32790;SDS011;19143;59.322;14.502;2023-07-28T13:49:25;1.73;;;1.63;;
32790;SDS011;19143;59.322;14.502;2023-07-28T13:52:02;1.67;;;1.60;;
32790;SDS011;19143;59.322;14.502;2023-07-28T13:54:29;1.43;;;1.40;;
32790;SDS011;19143;59.322;14.502;2023-07-28T13:56:55;3.37;;;1.50;;
32790;SDS011;19143;59.322;14.502;2023-07-28T13:59:22;1.57;;;1.47;;
32790;SDS011;19143;59.322;14.502;2023-07-28T14:01:49;1.70;;;1.67;;
32790;SDS011;19143;59.322;14.502;2023-07-28T14:04:17;1.73;;;1.63;;
32790;SDS011;19143;59.322;14.502;2023-07-28T14:06:44;3.93;;;1.87;;
32790;SDS011;19143;59.322;14.502;2023-07-28T14:09:11;4.93;;;1.80;;
32790;SDS011;19143;59.322;14.502;2023-07-28T14:11:38;1.53;;;1.30;;
32790;SDS011;19143;59.322;14.502;2023-07-28T14:14:05;1.77;;;1.47;;
32790;SDS011;19143;59.322;14.502;2023-07-28T14:16:31;1.40;;;1.40;;
32790;SDS011;19143;59.322;14.502;2023-07-28T14:18:58;1.90;;;1.80;;
32790;SDS011;19143;59.322;14.502;2023-07-28T14:21:26;1.60;;;1.50;;
32790;SDS011;19143;59.322;14.502;2023-07-28T14:23:53;1.30;;;1.30;;
32790;SDS011;19143;59.322;14.502;2023-07-28T14:26:19;1.40;;;1.40;;
32790;SDS011;19143;59.322;14.502;2023-07-28T14:28:46;1.30;;;1.30;;
32790;SDS011;19143;59.322;14.502;2023-07-28T14:31:13;1.27;;;1.13;;
32790;SDS011;19143;59.322;14.502;2023-07-28T14:33:40;1.60;;;1.30;;
32790;SDS011;19143;59.322;14.502;2023-07-28T14:36:06;1.20;;;1.10;;
32790;SDS011;19143;59.322;14.502;2023-07-28T14:38:41;1.83;;;1.30;;
32790;SDS011;19143;59.322;14.502;2023-07-28T14:41:08;2.83;;;1.50;;